Goiania, Brazil
Current Conditions -  °F | °C
As of 1:00 PM on Friday 24 Oct 2014 (Local Time) from SBGO Reporting Station
Few Clouds Few Clouds  
Wind Chill: 86°   Ceiling: Unl
Heat Index: 86°   Visibility: 6mi
Dew Point: 54°   Wind: 10mph
Humidity: 33%   Direction: 350°N
Pressure: 30.03"   Gusts: NA
Location:  16.72°S, 49.26°W
Report Text: SBGO 241500Z 35009KT 9999 FEW040 FEW045TCU 30/12 Q1017
Loading
Personal Weather Stations






























Interactive Weather Map
Tropical Storm Tracking
New forecast layout! Learn more

10-Day Weather Forecast

Advertisements
Track Severe Weather on mobile